createdAt,value
2023-04-16T00:01:16.964Z,12.20
2023-04-16T00:03:44.757Z,8.63
2023-04-16T00:06:12.849Z,9.10
2023-04-16T00:08:43.872Z,14.82
2023-04-16T00:11:11.591Z,11.23
2023-04-16T00:13:39.273Z,11.95
2023-04-16T00:16:08.708Z,10.77
2023-04-16T00:18:36.492Z,14.25
2023-04-16T00:21:04.452Z,9.48
2023-04-16T00:23:32.636Z,8.60
2023-04-16T00:26:01.708Z,11.65
2023-04-16T00:28:29.395Z,11.77
2023-04-16T00:30:57.816Z,9.20
2023-04-16T00:33:25.612Z,8.23
2023-04-16T00:35:53.346Z,9.77
2023-04-16T00:38:21.518Z,11.32
2023-04-16T00:40:49.212Z,8.02
2023-04-16T00:43:25.306Z,12.18
2023-04-16T00:45:53.951Z,13.65
2023-04-16T00:48:22.011Z,9.23
2023-04-16T00:50:50.347Z,10.75
2023-04-16T00:53:18.151Z,9.88
2023-04-16T00:55:46.496Z,14.57
2023-04-16T00:58:14.693Z,10.98
2023-04-16T01:00:43.783Z,11.70
2023-04-16T01:03:11.848Z,10.07
2023-04-16T01:05:41.057Z,9.98
2023-04-16T01:08:15.813Z,7.15
2023-04-16T01:10:43.904Z,8.38
2023-04-16T01:13:11.918Z,8.27
2023-04-16T01:15:39.791Z,12.00
2023-04-16T01:18:16.636Z,9.48
2023-04-16T01:20:46.211Z,8.07
2023-04-16T01:23:13.922Z,15.40
2023-04-16T01:25:42.115Z,8.40
2023-04-16T01:28:09.795Z,9.15
2023-04-16T01:30:37.512Z,6.55
2023-04-16T01:33:06.301Z,7.00
2023-04-16T01:35:33.977Z,9.30
2023-04-16T01:38:03.075Z,6.15
2023-04-16T01:40:31.494Z,7.47
2023-04-16T01:42:59.164Z,4.28
2023-04-16T01:45:26.967Z,6.10
2023-04-16T01:47:55.423Z,8.13
2023-04-16T01:50:24.867Z,8.00
2023-04-16T01:52:52.543Z,5.85
2023-04-16T01:55:22.532Z,8.70
2023-04-16T01:57:50.279Z,7.00
2023-04-16T02:00:18.033Z,4.53
2023-04-16T02:02:46.562Z,6.68
2023-04-16T02:05:14.439Z,5.97
2023-04-16T02:07:42.134Z,8.63
2023-04-16T02:10:11.720Z,6.50
2023-04-16T02:15:09.393Z,5.30
2023-04-16T02:17:37.646Z,7.63
2023-04-16T02:20:08.020Z,5.57
2023-04-16T02:22:35.845Z,8.20
2023-04-16T02:25:03.979Z,7.82
2023-04-16T02:27:31.682Z,8.25
2023-04-16T02:30:00.718Z,6.70
2023-04-16T02:32:29.020Z,6.18
2023-04-16T02:34:57.044Z,6.80
2023-04-16T02:37:25.825Z,4.50
2023-04-16T02:39:54.100Z,9.00
2023-04-16T02:42:21.860Z,5.35
2023-04-16T02:44:49.534Z,6.53
2023-04-16T02:47:19.055Z,6.68
2023-04-16T02:49:46.810Z,5.10
2023-04-16T02:52:15.625Z,5.75
2023-04-16T02:54:43.901Z,8.77
2023-04-16T02:57:11.575Z,9.85
2023-04-16T02:59:39.257Z,6.70
2023-04-16T03:02:07.540Z,5.70
2023-04-16T03:04:36.791Z,6.85
2023-04-16T03:07:04.771Z,8.52
2023-04-16T03:09:33.650Z,8.05
2023-04-16T03:12:01.750Z,7.15
2023-04-16T03:14:29.560Z,8.15
2023-04-16T03:16:57.864Z,9.07
2023-04-16T03:19:25.713Z,7.28
2023-04-16T03:21:54.776Z,5.63
2023-04-16T03:24:22.902Z,5.60
2023-04-16T03:26:50.614Z,5.55
2023-04-16T03:29:18.286Z,6.43
2023-04-16T03:31:46.830Z,10.43
2023-04-16T03:34:14.504Z,6.93
2023-04-16T03:36:42.172Z,10.35
2023-04-16T03:39:11.456Z,6.90
2023-04-16T03:41:39.257Z,9.15
2023-04-16T03:44:06.944Z,11.18
2023-04-16T03:46:35.246Z,7.45
2023-04-16T03:49:02.934Z,4.97
2023-04-16T03:51:30.887Z,6.00
2023-04-16T03:53:59.133Z,10.73
2023-04-16T03:56:28.199Z,6.28
2023-04-16T03:58:55.895Z,7.25
2023-04-16T04:01:24.160Z,9.68
2023-04-16T04:03:52.069Z,9.73
2023-04-16T04:06:19.965Z,6.85
2023-04-16T04:08:48.072Z,5.90
2023-04-16T04:11:15.773Z,9.13
2023-04-16T04:13:44.805Z,6.05
2023-04-16T04:16:13.170Z,6.38
2023-04-16T04:18:41.718Z,11.98
2023-04-16T04:21:11.057Z,7.25
2023-04-16T04:23:39.441Z,8.73
2023-04-16T04:26:07.520Z,8.35
2023-04-16T04:28:36.111Z,5.18
2023-04-16T04:31:05.874Z,8.98
2023-04-16T04:36:01.080Z,6.70
2023-04-16T04:38:30.487Z,4.78
2023-04-16T04:40:58.259Z,7.60
2023-04-16T04:43:26.194Z,5.63
2023-04-16T04:45:54.403Z,13.05
2023-04-16T04:48:26.526Z,9.35
2023-04-16T04:50:55.227Z,6.32
2023-04-16T04:53:22.949Z,7.20
2023-04-16T04:55:53.149Z,8.15
2023-04-16T04:58:23.805Z,8.00
2023-04-16T05:00:51.501Z,10.15
2023-04-16T05:03:22.607Z,7.63
2023-04-16T05:05:51.775Z,8.68
2023-04-16T05:08:19.440Z,7.20
2023-04-16T05:10:47.659Z,10.15
2023-04-16T05:13:15.358Z,6.78
2023-04-16T05:15:43.059Z,8.57
2023-04-16T05:18:11.181Z,7.57
2023-04-16T05:20:38.883Z,9.43
2023-04-16T05:23:07.964Z,6.95
2023-04-16T05:25:36.214Z,6.63
2023-04-16T05:28:04.005Z,11.95
2023-04-16T05:30:31.747Z,10.85
2023-04-16T05:33:00.323Z,8.75
2023-04-16T05:35:28.046Z,6.30
2023-04-16T05:37:55.719Z,10.00
2023-04-16T05:40:25.199Z,9.45
2023-04-16T05:42:52.882Z,8.30
2023-04-16T05:45:20.656Z,8.10
2023-04-16T05:47:49.170Z,7.72
2023-04-16T05:50:17.065Z,8.45
2023-04-16T05:52:44.749Z,6.53
2023-04-16T05:55:13.086Z,9.93
2023-04-16T05:57:42.151Z,10.35
2023-04-16T06:00:10.572Z,9.30
2023-04-16T06:02:38.884Z,20.40
2023-04-16T06:05:07.174Z,11.75
2023-04-16T06:07:34.885Z,9.88
2023-04-16T06:10:03.049Z,6.57
2023-04-16T06:12:31.029Z,9.02
2023-04-16T06:15:00.884Z,9.98
2023-04-16T06:17:29.248Z,8.73
2023-04-16T06:19:56.918Z,5.40
2023-04-16T06:22:25.578Z,7.53
2023-04-16T06:24:54.427Z,10.93
2023-04-16T06:27:22.089Z,9.53
2023-04-16T06:29:51.621Z,9.40
2023-04-16T06:32:21.300Z,7.90
2023-04-16T06:37:16.533Z,10.63
2023-04-16T06:39:44.805Z,9.15
2023-04-16T06:42:12.656Z,7.88
2023-04-16T06:44:40.360Z,8.93
2023-04-16T06:47:08.844Z,9.18
2023-04-16T06:49:39.435Z,7.03
2023-04-16T06:52:07.261Z,9.95
2023-04-16T06:54:35.278Z,8.82
2023-04-16T06:57:02.985Z,9.13
2023-04-16T06:59:30.876Z,9.52
2023-04-16T07:01:59.192Z,11.32
2023-04-16T07:04:26.929Z,9.60
2023-04-16T07:06:56.035Z,9.43
2023-04-16T07:09:23.728Z,7.38
2023-04-16T07:11:51.432Z,11.15
2023-04-16T07:14:19.190Z,7.90
2023-04-16T07:16:47.559Z,8.80
2023-04-16T07:19:15.338Z,7.63
2023-04-16T07:21:43.707Z,13.68
2023-04-16T07:24:13.475Z,11.00
2023-04-16T07:29:09.387Z,13.10
2023-04-16T07:31:38.284Z,11.70
2023-04-16T07:34:06.529Z,12.07
2023-04-16T07:36:34.505Z,12.43
2023-04-16T07:39:03.117Z,13.38
2023-04-16T07:41:32.705Z,16.08
2023-04-16T07:44:00.681Z,14.43
2023-04-16T07:46:36.198Z,15.02
2023-04-16T07:49:13.656Z,16.20
2023-04-16T07:51:41.862Z,13.50
2023-04-16T07:54:09.587Z,14.50
2023-04-16T07:56:38.647Z,17.50
2023-04-16T07:59:21.166Z,15.23
2023-04-16T08:01:50.341Z,23.55
2023-04-16T08:04:25.631Z,11.38
2023-04-16T08:06:54.408Z,17.17
2023-04-16T08:09:24.487Z,16.90
2023-04-16T08:11:53.529Z,17.95
2023-04-16T08:14:21.524Z,24.77
2023-04-16T08:16:49.613Z,31.70
2023-04-16T08:19:17.303Z,18.45
2023-04-16T08:21:45.404Z,20.58
2023-04-16T08:24:13.132Z,16.63
2023-04-16T08:26:41.268Z,16.35
2023-04-16T08:29:10.736Z,15.05
2023-04-16T08:31:39.455Z,15.52
2023-04-16T08:34:07.193Z,16.95
2023-04-16T08:36:34.891Z,15.70
2023-04-16T08:39:02.819Z,16.10
2023-04-16T08:41:33.459Z,15.27
2023-04-16T08:44:06.101Z,17.42
2023-04-16T08:46:38.761Z,17.00
2023-04-16T08:49:09.742Z,17.45
2023-04-16T08:51:37.979Z,16.65
2023-04-16T08:54:10.293Z,16.73
2023-04-16T08:56:39.471Z,18.00
2023-04-16T08:59:11.274Z,17.83
2023-04-16T09:01:41.980Z,22.42
2023-04-16T09:04:10.875Z,32.05
2023-04-16T09:06:42.107Z,26.90
2023-04-16T09:09:12.074Z,20.88
2023-04-16T09:11:40.651Z,26.42
2023-04-16T09:14:12.446Z,23.33
2023-04-16T09:16:43.079Z,18.33
2023-04-16T09:19:11.845Z,24.73
2023-04-16T09:21:42.568Z,23.17
2023-04-16T09:24:11.396Z,21.08
2023-04-16T09:26:39.848Z,23.85
2023-04-16T09:29:10.127Z,22.98
2023-04-16T09:31:38.470Z,34.03
2023-04-16T09:34:10.549Z,23.50
2023-04-16T09:36:38.740Z,23.23
2023-04-16T09:39:06.801Z,25.80
2023-04-16T09:41:40.167Z,33.10
2023-04-16T09:44:07.891Z,32.90
2023-04-16T09:46:37.036Z,24.48
2023-04-16T09:49:11.097Z,24.67
2023-04-16T09:51:42.283Z,17.60
2023-04-16T09:54:12.746Z,16.73
2023-04-16T09:56:42.620Z,19.25
2023-04-16T09:59:18.458Z,21.13
2023-04-16T10:01:49.541Z,26.95
2023-04-16T10:04:20.088Z,17.92
2023-04-16T10:07:04.550Z,21.55
2023-04-16T10:09:33.950Z,20.30
2023-04-16T10:12:02.294Z,20.50
2023-04-16T10:14:30.904Z,23.70
2023-04-16T10:16:59.561Z,17.52
2023-04-16T10:19:31.650Z,18.33
2023-04-16T10:22:00.614Z,16.38
2023-04-16T10:24:29.477Z,17.75
2023-04-16T10:26:57.867Z,14.70
2023-04-16T10:29:28.096Z,13.45
2023-04-16T10:31:57.842Z,16.48
2023-04-16T10:34:26.412Z,17.75
2023-04-16T10:36:57.038Z,15.13
2023-04-16T10:39:26.479Z,13.73
2023-04-16T10:42:09.916Z,16.27
2023-04-16T10:44:38.187Z,13.93
2023-04-16T10:47:13.399Z,17.40
2023-04-16T10:49:41.689Z,16.98
2023-04-16T10:52:13.602Z,16.40
2023-04-16T10:54:42.382Z,15.70
2023-04-16T10:57:18.522Z,16.90
2023-04-16T10:59:47.144Z,19.90
2023-04-16T11:02:17.570Z,28.73
2023-04-16T11:04:46.741Z,18.65
2023-04-16T11:07:20.712Z,22.73
2023-04-16T11:10:00.206Z,17.80
2023-04-16T11:15:04.872Z,15.30
2023-04-16T11:17:34.912Z,19.58
2023-04-16T11:20:03.205Z,25.67
2023-04-16T11:22:36.958Z,20.43
2023-04-16T11:25:05.775Z,21.38
2023-04-16T11:27:33.680Z,16.25
2023-04-16T11:30:04.652Z,17.25
2023-04-16T11:32:33.952Z,21.70
2023-04-16T11:35:04.927Z,19.05
2023-04-16T11:37:35.839Z,22.95
2023-04-16T11:40:07.337Z,18.75
2023-04-16T11:42:37.261Z,18.23
2023-04-16T11:45:06.215Z,20.80
2023-04-16T11:47:46.465Z,19.10
2023-04-16T11:50:22.127Z,21.92
2023-04-16T11:52:53.048Z,24.08
2023-04-16T11:55:21.764Z,23.67
2023-04-16T11:57:51.082Z,19.47
2023-04-16T12:00:24.363Z,19.73
2023-04-16T12:02:54.410Z,20.58
2023-04-16T12:05:31.437Z,16.83
2023-04-16T12:08:02.326Z,18.75
2023-04-16T12:10:31.781Z,23.88
2023-04-16T12:13:12.678Z,21.75
2023-04-16T12:15:48.469Z,25.83
2023-04-16T12:18:17.028Z,23.23
2023-04-16T12:20:47.598Z,22.88
2023-04-16T12:23:27.580Z,22.85
2023-04-16T12:25:56.623Z,20.58
2023-04-16T12:28:32.697Z,22.35
2023-04-16T12:31:01.155Z,25.08
2023-04-16T12:33:29.397Z,24.77
2023-04-16T12:35:58.529Z,24.88
2023-04-16T12:40:57.873Z,23.65
2023-04-16T12:43:26.680Z,20.52
2023-04-16T12:45:54.873Z,25.83
2023-04-16T12:48:22.981Z,20.30
2023-04-16T12:50:51.341Z,21.95
2023-04-16T12:53:19.515Z,22.33
2023-04-16T12:55:49.031Z,20.15
2023-04-16T12:58:17.491Z,21.73
2023-04-16T13:00:46.067Z,25.98
2023-04-16T13:03:14.288Z,23.70
2023-04-16T13:05:42.738Z,22.33
2023-04-16T13:08:10.847Z,23.13
2023-04-16T13:10:39.013Z,20.42
2023-04-16T13:13:10.515Z,19.15
2023-04-16T13:15:38.814Z,22.00
2023-04-16T13:18:07.084Z,20.95
2023-04-16T13:20:36.193Z,23.23
2023-04-16T13:23:04.964Z,22.92
2023-04-16T13:25:33.009Z,20.47
2023-04-16T13:28:01.270Z,20.73
2023-04-16T13:30:31.817Z,23.20
2023-04-16T13:33:00.144Z,23.42
2023-04-16T13:35:28.699Z,25.65
2023-04-16T13:37:56.798Z,27.95
2023-04-16T13:40:24.801Z,21.33
2023-04-16T13:42:53.197Z,26.35
2023-04-16T13:45:21.675Z,22.85
2023-04-16T13:47:51.389Z,29.10
2023-04-16T13:52:47.917Z,22.45
2023-04-16T13:55:19.233Z,22.70
2023-04-16T13:57:48.297Z,25.33
2023-04-16T14:00:17.368Z,31.67
2023-04-16T14:02:46.169Z,33.22
2023-04-16T14:05:15.858Z,28.60
2023-04-16T14:07:43.613Z,27.45
2023-04-16T14:10:12.654Z,33.92
2023-04-16T14:12:40.756Z,24.55
2023-04-16T14:15:10.755Z,26.70
2023-04-16T14:17:38.805Z,26.58
2023-04-16T14:20:08.065Z,23.95
2023-04-16T14:22:37.552Z,22.80
2023-04-16T14:25:06.100Z,28.30
2023-04-16T14:27:35.261Z,27.20
2023-04-16T14:30:03.478Z,27.85
2023-04-16T14:32:32.498Z,36.95
2023-04-16T14:35:00.723Z,22.77
2023-04-16T14:37:28.715Z,24.70
2023-04-16T14:39:58.750Z,25.52
2023-04-16T14:42:27.214Z,18.52
2023-04-16T14:44:55.343Z,29.80
2023-04-16T14:47:23.555Z,24.75
2023-04-16T14:49:51.692Z,30.02
2023-04-16T14:52:19.757Z,23.20
2023-04-16T14:54:49.491Z,26.08
2023-04-16T14:59:46.975Z,23.40
2023-04-16T15:02:15.255Z,31.23
2023-04-16T15:04:43.417Z,23.85
2023-04-16T15:07:11.752Z,28.50
2023-04-16T15:09:40.403Z,27.50
2023-04-16T15:12:08.329Z,24.88
2023-04-16T15:14:37.543Z,120.45
2023-04-16T15:17:05.737Z,74.40
2023-04-16T15:19:33.996Z,56.03
2023-04-16T15:22:02.218Z,28.50
2023-04-16T15:24:30.843Z,26.77
2023-04-16T15:26:58.942Z,27.17
2023-04-16T15:29:26.950Z,25.67
2023-04-16T15:31:56.641Z,28.42
2023-04-16T15:34:24.747Z,29.27
2023-04-16T15:36:52.711Z,25.70
2023-04-16T15:39:21.599Z,25.60
2023-04-16T15:42:00.831Z,27.85
2023-04-16T15:44:32.162Z,27.05
2023-04-16T15:47:01.907Z,26.30
2023-04-16T15:49:29.877Z,30.25
2023-04-16T15:51:58.304Z,25.35
2023-04-16T15:54:26.302Z,27.58
2023-04-16T15:56:54.431Z,29.35
2023-04-16T15:59:22.902Z,26.48
2023-04-16T16:01:50.964Z,26.80
2023-04-16T16:04:23.152Z,30.40
2023-04-16T16:12:29.557Z,31.80
2023-04-16T16:14:58.786Z,29.02
2023-04-16T16:17:26.965Z,32.40
2023-04-16T16:19:57.666Z,30.42
2023-04-16T16:22:26.137Z,23.95
2023-04-16T16:24:56.360Z,26.98
2023-04-16T16:27:24.656Z,26.52
2023-04-16T16:29:52.655Z,26.35
2023-04-16T16:32:20.688Z,27.98
2023-04-16T16:34:48.730Z,26.23
2023-04-16T16:37:18.067Z,27.38
2023-04-16T16:39:46.129Z,26.00
2023-04-16T16:42:19.170Z,27.52
2023-04-16T16:44:48.819Z,29.13
2023-04-16T16:47:17.020Z,28.10
2023-04-16T16:49:45.686Z,27.13
2023-04-16T16:52:13.613Z,28.15
2023-04-16T16:54:43.421Z,28.98
2023-04-16T16:57:11.663Z,27.63
2023-04-16T16:59:39.843Z,26.20
2023-04-16T17:02:08.333Z,31.05
2023-04-16T17:04:36.613Z,30.50
2023-04-16T17:07:04.736Z,28.17
2023-04-16T17:09:33.151Z,29.67
2023-04-16T17:12:02.736Z,32.17
2023-04-16T17:16:58.519Z,28.77
2023-04-16T17:19:26.673Z,32.03
2023-04-16T17:21:54.947Z,26.45
2023-04-16T17:24:23.095Z,28.70
2023-04-16T17:26:52.161Z,24.85
2023-04-16T17:29:26.062Z,28.48
2023-04-16T17:31:55.157Z,26.02
2023-04-16T17:34:23.276Z,23.95
2023-04-16T17:36:51.394Z,27.42
2023-04-16T17:39:19.614Z,29.40
2023-04-16T17:41:47.693Z,27.08
2023-04-16T17:44:16.128Z,30.33
2023-04-16T17:46:45.923Z,26.53
2023-04-16T17:49:14.145Z,25.85
2023-04-16T17:51:44.620Z,31.65
2023-04-16T17:54:13.221Z,33.72
2023-04-16T17:56:41.463Z,29.57
2023-04-16T17:59:09.337Z,25.52
2023-04-16T18:01:38.086Z,30.17
2023-04-16T18:04:08.042Z,27.65
2023-04-16T18:06:36.180Z,26.50
2023-04-16T18:09:06.276Z,31.35
2023-04-16T18:11:34.303Z,28.40
2023-04-16T18:14:02.282Z,26.17
2023-04-16T18:16:30.658Z,33.42
2023-04-16T18:18:59.230Z,30.23
2023-04-16T18:21:29.962Z,29.75
2023-04-16T18:23:58.355Z,32.95
2023-04-16T18:26:29.685Z,31.40
2023-04-16T18:28:58.527Z,28.83
2023-04-16T18:31:26.946Z,30.85
2023-04-16T18:33:57.888Z,31.13
2023-04-16T18:36:27.070Z,28.17
2023-04-16T18:39:01.756Z,30.42
2023-04-16T18:41:44.196Z,31.23
2023-04-16T18:44:12.666Z,31.38
2023-04-16T18:46:40.703Z,28.88
2023-04-16T18:49:09.492Z,33.08
2023-04-16T18:51:37.694Z,31.48
2023-04-16T18:54:07.318Z,32.60
2023-04-16T18:59:03.250Z,32.45
2023-04-16T19:01:31.601Z,29.55
2023-04-16T19:04:00.043Z,33.63
2023-04-16T19:06:29.351Z,33.55
2023-04-16T19:08:57.496Z,30.73
2023-04-16T19:11:27.360Z,33.97
2023-04-16T19:13:55.542Z,33.95
2023-04-16T19:16:23.757Z,32.90
2023-04-16T19:18:52.828Z,33.83
2023-04-16T19:21:21.156Z,36.13
2023-04-16T19:23:49.494Z,34.25
2023-04-16T19:26:18.474Z,35.92
2023-04-16T19:28:48.003Z,35.75
2023-04-16T19:31:16.210Z,39.40
2023-04-16T19:33:44.781Z,35.75
2023-04-16T19:36:13.035Z,38.20
2023-04-16T19:38:41.224Z,35.08
2023-04-16T19:41:09.789Z,37.70
2023-04-16T19:43:37.823Z,39.22
2023-04-16T19:46:07.451Z,39.25
2023-04-16T19:51:05.467Z,40.95
2023-04-16T19:53:34.533Z,36.95
2023-04-16T19:56:03.375Z,37.83
2023-04-16T19:58:32.044Z,40.83
2023-04-16T20:01:00.145Z,40.42
2023-04-16T20:03:30.162Z,38.13
2023-04-16T20:05:58.326Z,37.97
2023-04-16T20:08:26.533Z,38.78
2023-04-16T20:10:55.736Z,38.92
2023-04-16T20:13:23.709Z,38.00
2023-04-16T20:15:53.374Z,39.88
2023-04-16T20:20:51.793Z,38.73
2023-04-16T20:23:20.087Z,41.15
2023-04-16T20:25:48.609Z,34.10
2023-04-16T20:28:18.282Z,38.33
2023-04-16T20:33:14.512Z,37.03
2023-04-16T20:35:42.819Z,38.13
2023-04-16T20:38:12.297Z,38.65
2023-04-16T20:40:42.252Z,41.00
2023-04-16T20:43:14.328Z,42.97
2023-04-16T20:45:46.625Z,38.40
2023-04-16T20:48:14.737Z,38.35
2023-04-16T20:50:42.863Z,38.08
2023-04-16T20:53:13.311Z,39.17
2023-04-16T20:55:41.276Z,37.35
2023-04-16T20:58:09.571Z,36.95
2023-04-16T21:00:37.841Z,42.78
2023-04-16T21:03:06.979Z,31.83
2023-04-16T21:05:35.198Z,36.92
2023-04-16T21:08:03.423Z,34.95
2023-04-16T21:10:32.958Z,36.10
2023-04-16T21:15:29.433Z,32.70
2023-04-16T21:17:57.338Z,35.05
2023-04-16T21:20:25.670Z,32.83
2023-04-16T21:22:57.489Z,35.20
2023-04-16T21:25:25.841Z,30.40
2023-04-16T21:27:55.730Z,32.28
2023-04-16T21:30:24.432Z,35.08
2023-04-16T21:32:52.755Z,30.63
2023-04-16T21:35:21.344Z,31.48
2023-04-16T21:37:50.317Z,30.80
2023-04-16T21:40:18.825Z,31.13
2023-04-16T21:42:47.132Z,33.70
2023-04-16T21:45:17.066Z,29.90
2023-04-16T21:47:45.344Z,26.85
2023-04-16T21:50:14.125Z,25.85
2023-04-16T21:52:46.929Z,26.07
2023-04-16T21:55:15.271Z,28.10
2023-04-16T21:57:43.429Z,29.75
2023-04-16T22:00:14.443Z,27.05
2023-04-16T22:02:44.370Z,27.45
2023-04-16T22:05:12.602Z,30.40
2023-04-16T22:07:42.132Z,27.08
2023-04-16T22:10:11.812Z,27.27
2023-04-16T22:12:41.713Z,28.45
2023-04-16T22:15:11.315Z,32.53
2023-04-16T22:20:13.012Z,31.65
2023-04-16T22:22:41.440Z,29.95
2023-04-16T22:25:10.778Z,31.27
2023-04-16T22:27:39.708Z,29.95
2023-04-16T22:30:09.434Z,30.15
2023-04-16T22:32:37.678Z,28.15
2023-04-16T22:35:07.153Z,29.70
2023-04-16T22:37:37.099Z,29.63
2023-04-16T22:40:08.500Z,27.60
2023-04-16T22:42:36.683Z,28.13
2023-04-16T22:45:05.510Z,28.65
2023-04-16T22:47:34.253Z,28.27
2023-04-16T22:50:03.317Z,26.47
2023-04-16T22:52:31.453Z,26.45
2023-04-16T22:55:01.742Z,27.58
2023-04-16T22:57:29.843Z,28.38
2023-04-16T22:59:57.886Z,29.75
2023-04-16T23:02:26.965Z,29.35
2023-04-16T23:04:55.018Z,32.63
2023-04-16T23:07:23.159Z,29.90
2023-04-16T23:09:52.182Z,34.20
2023-04-16T23:12:21.695Z,32.05
2023-04-16T23:14:49.742Z,31.27
2023-04-16T23:17:18.569Z,33.35
2023-04-16T23:19:46.601Z,32.38
2023-04-16T23:22:14.848Z,34.30
2023-04-16T23:24:43.312Z,33.78
2023-04-16T23:27:11.498Z,35.45
2023-04-16T23:29:41.370Z,31.65
2023-04-16T23:32:10.809Z,33.28
2023-04-16T23:34:38.979Z,32.72
2023-04-16T23:37:07.111Z,34.47
2023-04-16T23:39:35.806Z,30.92
2023-04-16T23:42:03.910Z,33.63
2023-04-16T23:44:32.130Z,34.38
2023-04-16T23:47:02.551Z,33.80
2023-04-16T23:49:30.821Z,38.85
2023-04-16T23:51:59.184Z,32.90
2023-04-16T23:54:28.068Z,34.83
2023-04-16T23:56:57.166Z,37.00
2023-04-16T23:59:25.561Z,37.40
